sensor_id;sensor_type;location;lat;lon;timestamp;temperature;humidity
16076;DHT22;8142;48.242;11.644;2023-06-22T00:02:17;21.20;99.90
16076;DHT22;8142;48.242;11.644;2023-06-22T00:04:44;21.10;99.90
16076;DHT22;8142;48.242;11.644;2023-06-22T00:07:10;21.10;99.90
16076;DHT22;8142;48.242;11.644;2023-06-22T00:09:36;21.10;99.90
16076;DHT22;8142;48.242;11.644;2023-06-22T00:12:02;21.00;99.90
16076;DHT22;8142;48.242;11.644;2023-06-22T00:14:28;21.00;99.90
16076;DHT22;8142;48.242;11.644;2023-06-22T00:16:54;21.00;99.90
16076;DHT22;8142;48.242;11.644;2023-06-22T00:19:21;21.00;99.90
16076;DHT22;8142;48.242;11.644;2023-06-22T00:21:48;21.00;99.90
16076;DHT22;8142;48.242;11.644;2023-06-22T00:24:19;21.00;99.90
16076;DHT22;8142;48.242;11.644;2023-06-22T00:26:45;21.00;99.90
16076;DHT22;8142;48.242;11.644;2023-06-22T00:29:11;21.00;99.90
16076;DHT22;8142;48.242;11.644;2023-06-22T00:31:37;20.90;99.90
16076;DHT22;8142;48.242;11.644;2023-06-22T00:34:03;20.90;99.90
16076;DHT22;8142;48.242;11.644;2023-06-22T00:36:29;20.90;99.90
16076;DHT22;8142;48.242;11.644;2023-06-22T00:38:55;20.90;99.90
16076;DHT22;8142;48.242;11.644;2023-06-22T00:41:21;20.90;99.90
16076;DHT22;8142;48.242;11.644;2023-06-22T00:43:47;20.90;99.90
16076;DHT22;8142;48.242;11.644;2023-06-22T00:46:13;20.90;99.90
16076;DHT22;8142;48.242;11.644;2023-06-22T00:48:39;20.80;99.90
16076;DHT22;8142;48.242;11.644;2023-06-22T00:51:07;20.80;99.90
16076;DHT22;8142;48.242;11.644;2023-06-22T00:53:33;20.80;99.90
16076;DHT22;8142;48.242;11.644;2023-06-22T00:56:00;20.80;99.90
16076;DHT22;8142;48.242;11.644;2023-06-22T00:58:29;20.80;99.90
16076;DHT22;8142;48.242;11.644;2023-06-22T01:00:55;20.80;99.90
16076;DHT22;8142;48.242;11.644;2023-06-22T01:03:21;20.70;99.90
16076;DHT22;8142;48.242;11.644;2023-06-22T01:05:48;20.80;99.90
16076;DHT22;8142;48.242;11.644;2023-06-22T01:10:59;20.70;99.90
16076;DHT22;8142;48.242;11.644;2023-06-22T01:16:27;20.70;99.90
16076;DHT22;8142;48.242;11.644;2023-06-22T01:18:55;20.70;99.90
16076;DHT22;8142;48.242;11.644;2023-06-22T01:21:26;20.70;99.90
16076;DHT22;8142;48.242;11.644;2023-06-22T01:29:26;20.60;99.90
16076;DHT22;8142;48.242;11.644;2023-06-22T01:31:54;20.60;99.90
16076;DHT22;8142;48.242;11.644;2023-06-22T01:34:22;20.60;99.90
16076;DHT22;8142;48.242;11.644;2023-06-22T01:36:49;20.60;99.90
16076;DHT22;8142;48.242;11.644;2023-06-22T01:39:16;20.50;99.90
16076;DHT22;8142;48.242;11.644;2023-06-22T01:41:42;20.50;99.90
16076;DHT22;8142;48.242;11.644;2023-06-22T01:44:09;20.60;99.90
16076;DHT22;8142;48.242;11.644;2023-06-22T01:46:36;20.50;99.90
16076;DHT22;8142;48.242;11.644;2023-06-22T01:49:03;20.40;99.90
16076;DHT22;8142;48.242;11.644;2023-06-22T01:51:30;20.40;99.90
16076;DHT22;8142;48.242;11.644;2023-06-22T01:53:56;20.40;99.90
16076;DHT22;8142;48.242;11.644;2023-06-22T01:56:22;20.40;99.90
16076;DHT22;8142;48.242;11.644;2023-06-22T01:59:15;20.40;99.90
16076;DHT22;8142;48.242;11.644;2023-06-22T02:01:50;20.40;99.90
16076;DHT22;8142;48.242;11.644;2023-06-22T02:04:24;20.40;99.90
16076;DHT22;8142;48.242;11.644;2023-06-22T02:06:55;20.30;99.90
16076;DHT22;8142;48.242;11.644;2023-06-22T02:09:23;20.30;99.90
16076;DHT22;8142;48.242;11.644;2023-06-22T02:11:51;20.30;99.90
16076;DHT22;8142;48.242;11.644;2023-06-22T02:14:21;20.30;99.90
16076;DHT22;8142;48.242;11.644;2023-06-22T02:16:47;20.30;99.90
16076;DHT22;8142;48.242;11.644;2023-06-22T02:19:13;20.30;99.90
16076;DHT22;8142;48.242;11.644;2023-06-22T02:21:41;20.30;99.90
16076;DHT22;8142;48.242;11.644;2023-06-22T02:24:07;20.30;99.90
16076;DHT22;8142;48.242;11.644;2023-06-22T02:26:33;20.30;99.90
16076;DHT22;8142;48.242;11.644;2023-06-22T02:29:00;20.30;99.90
16076;DHT22;8142;48.242;11.644;2023-06-22T02:31:25;20.20;99.90
16076;DHT22;8142;48.242;11.644;2023-06-22T02:33:58;20.20;99.90
16076;DHT22;8142;48.242;11.644;2023-06-22T02:36:24;20.20;99.90
16076;DHT22;8142;48.242;11.644;2023-06-22T02:38:53;20.20;99.90
16076;DHT22;8142;48.242;11.644;2023-06-22T02:41:19;20.20;99.90
16076;DHT22;8142;48.242;11.644;2023-06-22T02:43:46;20.20;99.90
16076;DHT22;8142;48.242;11.644;2023-06-22T02:46:13;20.20;99.90
16076;DHT22;8142;48.242;11.644;2023-06-22T02:48:42;20.20;99.90
16076;DHT22;8142;48.242;11.644;2023-06-22T02:51:08;20.10;99.90
16076;DHT22;8142;48.242;11.644;2023-06-22T02:53:34;20.10;99.90
16076;DHT22;8142;48.242;11.644;2023-06-22T02:56:02;20.00;99.90
16076;DHT22;8142;48.242;11.644;2023-06-22T02:58:31;20.00;99.90
16076;DHT22;8142;48.242;11.644;2023-06-22T03:01:07;20.00;99.90
16076;DHT22;8142;48.242;11.644;2023-06-22T03:03:33;19.90;99.90
16076;DHT22;8142;48.242;11.644;2023-06-22T03:05:59;19.90;99.90
16076;DHT22;8142;48.242;11.644;2023-06-22T03:08:26;19.80;99.90
16076;DHT22;8142;48.242;11.644;2023-06-22T03:10:52;19.70;99.90
16076;DHT22;8142;48.242;11.644;2023-06-22T03:13:18;19.60;99.90
16076;DHT22;8142;48.242;11.644;2023-06-22T03:15:44;19.40;99.90
16076;DHT22;8142;48.242;11.644;2023-06-22T03:18:11;19.30;99.90
16076;DHT22;8142;48.242;11.644;2023-06-22T03:20:37;19.20;99.90
16076;DHT22;8142;48.242;11.644;2023-06-22T03:23:03;19.10;99.90
16076;DHT22;8142;48.242;11.644;2023-06-22T03:25:29;19.00;99.90
16076;DHT22;8142;48.242;11.644;2023-06-22T03:27:55;19.00;99.90
16076;DHT22;8142;48.242;11.644;2023-06-22T03:30:20;19.00;99.90
16076;DHT22;8142;48.242;11.644;2023-06-22T03:32:49;19.10;99.90
16076;DHT22;8142;48.242;11.644;2023-06-22T03:35:15;19.10;99.90
16076;DHT22;8142;48.242;11.644;2023-06-22T03:37:41;19.10;99.90
16076;DHT22;8142;48.242;11.644;2023-06-22T03:40:07;19.20;99.90
16076;DHT22;8142;48.242;11.644;2023-06-22T03:42:34;19.20;99.90
16076;DHT22;8142;48.242;11.644;2023-06-22T03:45:02;19.20;99.90
16076;DHT22;8142;48.242;11.644;2023-06-22T03:47:29;19.20;99.90
16076;DHT22;8142;48.242;11.644;2023-06-22T03:49:55;19.30;99.90
16076;DHT22;8142;48.242;11.644;2023-06-22T03:52:23;19.30;99.90
16076;DHT22;8142;48.242;11.644;2023-06-22T03:54:50;19.40;99.90
16076;DHT22;8142;48.242;11.644;2023-06-22T03:57:16;19.40;99.90
16076;DHT22;8142;48.242;11.644;2023-06-22T03:59:42;19.40;99.90
16076;DHT22;8142;48.242;11.644;2023-06-22T04:02:08;19.50;99.90
16076;DHT22;8142;48.242;11.644;2023-06-22T04:04:34;19.50;99.90
16076;DHT22;8142;48.242;11.644;2023-06-22T04:07:01;19.50;99.90
16076;DHT22;8142;48.242;11.644;2023-06-22T04:09:26;19.50;99.90
16076;DHT22;8142;48.242;11.644;2023-06-22T04:11:52;19.60;99.90
16076;DHT22;8142;48.242;11.644;2023-06-22T04:14:18;19.60;99.90
16076;DHT22;8142;48.242;11.644;2023-06-22T04:16:44;19.60;99.90
16076;DHT22;8142;48.242;11.644;2023-06-22T04:19:10;19.70;99.90
16076;DHT22;8142;48.242;11.644;2023-06-22T04:21:42;19.70;99.90
16076;DHT22;8142;48.242;11.644;2023-06-22T04:24:08;19.80;99.90
16076;DHT22;8142;48.242;11.644;2023-06-22T04:26:34;19.80;99.90
16076;DHT22;8142;48.242;11.644;2023-06-22T04:29:03;19.80;99.90
16076;DHT22;8142;48.242;11.644;2023-06-22T04:31:34;19.90;99.90
16076;DHT22;8142;48.242;11.644;2023-06-22T04:34:04;19.90;99.90
16076;DHT22;8142;48.242;11.644;2023-06-22T04:36:41;19.90;99.90
16076;DHT22;8142;48.242;11.644;2023-06-22T04:39:08;20.00;99.90
16076;DHT22;8142;48.242;11.644;2023-06-22T04:41:40;20.00;99.90
16076;DHT22;8142;48.242;11.644;2023-06-22T04:44:12;20.00;99.90
16076;DHT22;8142;48.242;11.644;2023-06-22T04:46:39;20.00;99.90
16076;DHT22;8142;48.242;11.644;2023-06-22T04:49:08;20.00;99.90
16076;DHT22;8142;48.242;11.644;2023-06-22T04:51:40;20.00;99.90
16076;DHT22;8142;48.242;11.644;2023-06-22T04:54:07;20.00;99.90
16076;DHT22;8142;48.242;11.644;2023-06-22T04:56:33;20.10;99.90
16076;DHT22;8142;48.242;11.644;2023-06-22T04:58:59;20.10;99.90
16076;DHT22;8142;48.242;11.644;2023-06-22T05:01:26;20.10;99.90
16076;DHT22;8142;48.242;11.644;2023-06-22T05:03:51;20.20;99.90
16076;DHT22;8142;48.242;11.644;2023-06-22T05:06:27;20.20;99.90
16076;DHT22;8142;48.242;11.644;2023-06-22T05:08:57;20.30;99.90
16076;DHT22;8142;48.242;11.644;2023-06-22T05:11:29;20.20;99.90
16076;DHT22;8142;48.242;11.644;2023-06-22T05:13:55;20.20;99.90
16076;DHT22;8142;48.242;11.644;2023-06-22T05:16:22;20.10;99.90
16076;DHT22;8142;48.242;11.644;2023-06-22T05:18:53;20.10;99.90
16076;DHT22;8142;48.242;11.644;2023-06-22T05:21:24;20.00;99.90
16076;DHT22;8142;48.242;11.644;2023-06-22T05:23:51;20.00;99.90
16076;DHT22;8142;48.242;11.644;2023-06-22T05:26:20;20.20;99.90
16076;DHT22;8142;48.242;11.644;2023-06-22T05:28:47;20.40;99.90
16076;DHT22;8142;48.242;11.644;2023-06-22T05:31:16;20.40;99.90
16076;DHT22;8142;48.242;11.644;2023-06-22T05:33:43;20.70;99.90
16076;DHT22;8142;48.242;11.644;2023-06-22T05:36:09;21.00;99.90
16076;DHT22;8142;48.242;11.644;2023-06-22T05:38:36;21.30;99.90
16076;DHT22;8142;48.242;11.644;2023-06-22T05:41:02;21.60;99.90
16076;DHT22;8142;48.242;11.644;2023-06-22T05:43:28;21.80;99.90
16076;DHT22;8142;48.242;11.644;2023-06-22T05:45:54;22.10;99.90
16076;DHT22;8142;48.242;11.644;2023-06-22T05:48:20;22.40;99.90
16076;DHT22;8142;48.242;11.644;2023-06-22T05:50:46;22.70;99.90
16076;DHT22;8142;48.242;11.644;2023-06-22T05:53:12;22.90;99.90
16076;DHT22;8142;48.242;11.644;2023-06-22T05:55:37;23.10;99.90
16076;DHT22;8142;48.242;11.644;2023-06-22T05:58:03;23.30;99.90
16076;DHT22;8142;48.242;11.644;2023-06-22T06:00:30;23.60;99.90
16076;DHT22;8142;48.242;11.644;2023-06-22T06:02:56;23.80;99.90
16076;DHT22;8142;48.242;11.644;2023-06-22T06:05:22;24.00;99.90
16076;DHT22;8142;48.242;11.644;2023-06-22T06:07:51;24.20;99.90
16076;DHT22;8142;48.242;11.644;2023-06-22T06:10:17;24.40;99.90
16076;DHT22;8142;48.242;11.644;2023-06-22T06:12:43;24.50;99.90
16076;DHT22;8142;48.242;11.644;2023-06-22T06:15:09;24.60;99.90
16076;DHT22;8142;48.242;11.644;2023-06-22T06:17:35;24.70;99.90
16076;DHT22;8142;48.242;11.644;2023-06-22T06:20:01;24.80;99.90
16076;DHT22;8142;48.242;11.644;2023-06-22T06:22:29;25.00;99.90
16076;DHT22;8142;48.242;11.644;2023-06-22T06:24:55;25.10;99.90
16076;DHT22;8142;48.242;11.644;2023-06-22T06:27:20;25.30;99.90
16076;DHT22;8142;48.242;11.644;2023-06-22T06:29:46;25.40;99.90
16076;DHT22;8142;48.242;11.644;2023-06-22T06:32:14;25.50;99.90
16076;DHT22;8142;48.242;11.644;2023-06-22T06:34:40;25.70;99.90
16076;DHT22;8142;48.242;11.644;2023-06-22T06:37:06;25.80;99.90
16076;DHT22;8142;48.242;11.644;2023-06-22T06:39:32;25.90;99.90
16076;DHT22;8142;48.242;11.644;2023-06-22T06:41:57;26.00;99.90
16076;DHT22;8142;48.242;11.644;2023-06-22T06:44:23;26.20;99.90
16076;DHT22;8142;48.242;11.644;2023-06-22T06:46:49;26.30;99.90
16076;DHT22;8142;48.242;11.644;2023-06-22T06:49:15;26.40;99.90
16076;DHT22;8142;48.242;11.644;2023-06-22T06:51:41;26.50;99.90
16076;DHT22;8142;48.242;11.644;2023-06-22T06:54:07;26.60;99.90
16076;DHT22;8142;48.242;11.644;2023-06-22T06:56:33;26.80;99.90
16076;DHT22;8142;48.242;11.644;2023-06-22T06:58:59;26.80;99.90
16076;DHT22;8142;48.242;11.644;2023-06-22T07:01:25;26.90;99.90
16076;DHT22;8142;48.242;11.644;2023-06-22T07:03:50;27.00;99.90
16076;DHT22;8142;48.242;11.644;2023-06-22T07:06:16;27.10;99.90
16076;DHT22;8142;48.242;11.644;2023-06-22T07:08:42;27.20;99.90
16076;DHT22;8142;48.242;11.644;2023-06-22T07:11:08;27.30;99.90
16076;DHT22;8142;48.242;11.644;2023-06-22T07:13:34;27.40;99.90
16076;DHT22;8142;48.242;11.644;2023-06-22T07:16:00;27.40;99.90
16076;DHT22;8142;48.242;11.644;2023-06-22T07:18:26;27.50;99.90
16076;DHT22;8142;48.242;11.644;2023-06-22T07:20:52;27.60;99.90
16076;DHT22;8142;48.242;11.644;2023-06-22T07:23:18;27.60;99.90
16076;DHT22;8142;48.242;11.644;2023-06-22T07:25:44;27.70;99.90
16076;DHT22;8142;48.242;11.644;2023-06-22T07:28:10;27.80;99.90
16076;DHT22;8142;48.242;11.644;2023-06-22T07:30:35;27.90;99.90
16076;DHT22;8142;48.242;11.644;2023-06-22T07:33:02;28.00;99.90
16076;DHT22;8142;48.242;11.644;2023-06-22T07:35:30;28.10;99.90
16076;DHT22;8142;48.242;11.644;2023-06-22T07:37:56;28.20;99.90
16076;DHT22;8142;48.242;11.644;2023-06-22T07:40:22;28.30;99.90
16076;DHT22;8142;48.242;11.644;2023-06-22T07:42:48;28.40;99.90
16076;DHT22;8142;48.242;11.644;2023-06-22T07:45:14;28.50;99.90
16076;DHT22;8142;48.242;11.644;2023-06-22T07:47:40;28.50;99.90
16076;DHT22;8142;48.242;11.644;2023-06-22T07:50:06;28.50;99.90
16076;DHT22;8142;48.242;11.644;2023-06-22T07:52:32;28.60;99.90
16076;DHT22;8142;48.242;11.644;2023-06-22T07:54:58;28.70;99.90
16076;DHT22;8142;48.242;11.644;2023-06-22T07:57:24;28.70;99.90
16076;DHT22;8142;48.242;11.644;2023-06-22T07:59:58;28.80;99.90
16076;DHT22;8142;48.242;11.644;2023-06-22T08:02:25;28.90;99.90
16076;DHT22;8142;48.242;11.644;2023-06-22T08:04:50;29.00;99.90
16076;DHT22;8142;48.242;11.644;2023-06-22T08:07:16;29.10;99.90
16076;DHT22;8142;48.242;11.644;2023-06-22T08:09:48;29.10;99.90
16076;DHT22;8142;48.242;11.644;2023-06-22T08:12:15;29.10;99.90
16076;DHT22;8142;48.242;11.644;2023-06-22T08:14:42;29.10;99.90
16076;DHT22;8142;48.242;11.644;2023-06-22T08:17:11;29.10;99.90
16076;DHT22;8142;48.242;11.644;2023-06-22T08:19:37;29.10;99.90
16076;DHT22;8142;48.242;11.644;2023-06-22T08:22:03;29.20;99.90
16076;DHT22;8142;48.242;11.644;2023-06-22T08:24:29;29.20;99.90
16076;DHT22;8142;48.242;11.644;2023-06-22T08:26:56;29.20;99.90
16076;DHT22;8142;48.242;11.644;2023-06-22T08:29:22;29.20;99.90
16076;DHT22;8142;48.242;11.644;2023-06-22T08:31:48;29.10;99.90
16076;DHT22;8142;48.242;11.644;2023-06-22T08:34:14;29.10;99.90
16076;DHT22;8142;48.242;11.644;2023-06-22T08:36:39;29.00;99.90
16076;DHT22;8142;48.242;11.644;2023-06-22T08:39:08;28.90;99.90
16076;DHT22;8142;48.242;11.644;2023-06-22T08:41:34;28.90;99.90
16076;DHT22;8142;48.242;11.644;2023-06-22T08:44:00;28.80;99.90
16076;DHT22;8142;48.242;11.644;2023-06-22T08:46:26;28.80;99.90
16076;DHT22;8142;48.242;11.644;2023-06-22T08:48:58;28.80;99.90
16076;DHT22;8142;48.242;11.644;2023-06-22T08:51:24;28.70;99.90
16076;DHT22;8142;48.242;11.644;2023-06-22T08:53:50;28.70;99.90
16076;DHT22;8142;48.242;11.644;2023-06-22T08:56:16;28.60;99.90
16076;DHT22;8142;48.242;11.644;2023-06-22T08:58:42;28.50;99.90
16076;DHT22;8142;48.242;11.644;2023-06-22T09:01:08;28.40;99.90
16076;DHT22;8142;48.242;11.644;2023-06-22T09:03:33;28.40;99.90
16076;DHT22;8142;48.242;11.644;2023-06-22T09:06:02;28.30;99.90
16076;DHT22;8142;48.242;11.644;2023-06-22T09:08:28;28.20;99.90
16076;DHT22;8142;48.242;11.644;2023-06-22T09:10:53;28.20;99.90
16076;DHT22;8142;48.242;11.644;2023-06-22T09:13:19;28.10;99.90
16076;DHT22;8142;48.242;11.644;2023-06-22T09:15:45;28.10;99.90
16076;DHT22;8142;48.242;11.644;2023-06-22T09:18:13;28.00;99.90
16076;DHT22;8142;48.242;11.644;2023-06-22T09:20:39;27.90;99.90
16076;DHT22;8142;48.242;11.644;2023-06-22T09:23:05;27.90;99.90
16076;DHT22;8142;48.242;11.644;2023-06-22T09:25:31;27.80;99.90
16076;DHT22;8142;48.242;11.644;2023-06-22T09:27:56;27.80;99.90
16076;DHT22;8142;48.242;11.644;2023-06-22T09:30:22;27.70;99.90
16076;DHT22;8142;48.242;11.644;2023-06-22T09:32:48;27.70;99.90
16076;DHT22;8142;48.242;11.644;2023-06-22T09:35:14;27.60;99.90
16076;DHT22;8142;48.242;11.644;2023-06-22T09:37:40;27.60;99.90
16076;DHT22;8142;48.242;11.644;2023-06-22T09:40:07;27.60;99.90
16076;DHT22;8142;48.242;11.644;2023-06-22T09:42:38;27.50;99.90
16076;DHT22;8142;48.242;11.644;2023-06-22T09:45:05;27.50;99.90
16076;DHT22;8142;48.242;11.644;2023-06-22T09:47:31;27.50;99.90
16076;DHT22;8142;48.242;11.644;2023-06-22T09:49:57;27.50;99.90
16076;DHT22;8142;48.242;11.644;2023-06-22T09:52:25;27.50;99.90
16076;DHT22;8142;48.242;11.644;2023-06-22T09:54:51;27.50;99.90
16076;DHT22;8142;48.242;11.644;2023-06-22T09:57:17;27.50;99.90
16076;DHT22;8142;48.242;11.644;2023-06-22T09:59:43;27.50;99.90
16076;DHT22;8142;48.242;11.644;2023-06-22T10:02:09;27.50;99.90
16076;DHT22;8142;48.242;11.644;2023-06-22T10:04:35;27.50;99.90
16076;DHT22;8142;48.242;11.644;2023-06-22T10:07:02;27.50;99.90
16076;DHT22;8142;48.242;11.644;2023-06-22T10:09:28;27.50;99.90
16076;DHT22;8142;48.242;11.644;2023-06-22T10:11:54;27.50;99.90
16076;DHT22;8142;48.242;11.644;2023-06-22T10:14:20;27.50;99.90
16076;DHT22;8142;48.242;11.644;2023-06-22T10:16:46;27.50;99.90
16076;DHT22;8142;48.242;11.644;2023-06-22T10:19:12;27.50;99.90
16076;DHT22;8142;48.242;11.644;2023-06-22T10:21:37;27.50;99.90
16076;DHT22;8142;48.242;11.644;2023-06-22T10:24:04;27.60;99.90
16076;DHT22;8142;48.242;11.644;2023-06-22T10:26:35;27.60;99.90
16076;DHT22;8142;48.242;11.644;2023-06-22T10:29:04;27.60;99.90
16076;DHT22;8142;48.242;11.644;2023-06-22T10:31:30;27.60;99.90
16076;DHT22;8142;48.242;11.644;2023-06-22T10:33:56;27.60;99.90
16076;DHT22;8142;48.242;11.644;2023-06-22T10:36:22;27.60;99.90
16076;DHT22;8142;48.242;11.644;2023-06-22T10:38:49;27.60;99.90
16076;DHT22;8142;48.242;11.644;2023-06-22T10:41:15;27.70;99.90
16076;DHT22;8142;48.242;11.644;2023-06-22T10:43:42;27.70;99.90
16076;DHT22;8142;48.242;11.644;2023-06-22T10:46:08;27.70;99.90
16076;DHT22;8142;48.242;11.644;2023-06-22T10:48:33;27.70;99.90
16076;DHT22;8142;48.242;11.644;2023-06-22T10:50:59;27.80;99.90
16076;DHT22;8142;48.242;11.644;2023-06-22T10:53:25;27.80;99.90
16076;DHT22;8142;48.242;11.644;2023-06-22T10:55:51;27.80;99.90
16076;DHT22;8142;48.242;11.644;2023-06-22T10:58:18;27.80;99.90
16076;DHT22;8142;48.242;11.644;2023-06-22T11:00:45;27.80;99.90
16076;DHT22;8142;48.242;11.644;2023-06-22T11:03:11;27.80;99.90
16076;DHT22;8142;48.242;11.644;2023-06-22T11:05:37;27.80;99.90
16076;DHT22;8142;48.242;11.644;2023-06-22T11:08:03;27.80;99.90
16076;DHT22;8142;48.242;11.644;2023-06-22T11:10:29;27.90;99.90
16076;DHT22;8142;48.242;11.644;2023-06-22T11:12:55;27.90;99.90
16076;DHT22;8142;48.242;11.644;2023-06-22T11:15:24;27.90;99.90
16076;DHT22;8142;48.242;11.644;2023-06-22T11:17:50;28.00;99.90
16076;DHT22;8142;48.242;11.644;2023-06-22T11:20:16;28.00;99.90
16076;DHT22;8142;48.242;11.644;2023-06-22T11:22:42;28.00;99.90
16076;DHT22;8142;48.242;11.644;2023-06-22T11:25:08;28.00;99.90
16076;DHT22;8142;48.242;11.644;2023-06-22T11:27:35;28.10;99.90
16076;DHT22;8142;48.242;11.644;2023-06-22T11:30:00;28.10;99.90
16076;DHT22;8142;48.242;11.644;2023-06-22T11:32:26;28.10;99.90
16076;DHT22;8142;48.242;11.644;2023-06-22T11:34:52;28.20;99.90
16076;DHT22;8142;48.242;11.644;2023-06-22T11:37:18;28.20;99.90
16076;DHT22;8142;48.242;11.644;2023-06-22T11:39:44;28.30;99.90
16076;DHT22;8142;48.242;11.644;2023-06-22T11:42:10;28.30;99.90
16076;DHT22;8142;48.242;11.644;2023-06-22T11:44:36;28.30;99.90
16076;DHT22;8142;48.242;11.644;2023-06-22T11:47:02;28.40;99.90
16076;DHT22;8142;48.242;11.644;2023-06-22T11:49:32;28.40;99.90
16076;DHT22;8142;48.242;11.644;2023-06-22T11:51:58;28.50;99.90
16076;DHT22;8142;48.242;11.644;2023-06-22T11:54:24;28.50;99.90
16076;DHT22;8142;48.242;11.644;2023-06-22T11:56:50;28.50;99.90
16076;DHT22;8142;48.242;11.644;2023-06-22T11:59:16;28.50;99.90
16076;DHT22;8142;48.242;11.644;2023-06-22T12:01:42;28.50;99.90
16076;DHT22;8142;48.242;11.644;2023-06-22T12:04:08;28.60;99.90
16076;DHT22;8142;48.242;11.644;2023-06-22T12:06:38;28.60;99.90
16076;DHT22;8142;48.242;11.644;2023-06-22T12:09:07;28.60;99.90
16076;DHT22;8142;48.242;11.644;2023-06-22T12:11:33;28.60;99.90
16076;DHT22;8142;48.242;11.644;2023-06-22T12:14:00;28.60;99.90
16076;DHT22;8142;48.242;11.644;2023-06-22T12:16:28;28.60;99.90
16076;DHT22;8142;48.242;11.644;2023-06-22T12:18:54;28.70;99.90
16076;DHT22;8142;48.242;11.644;2023-06-22T12:21:20;28.70;99.90
16076;DHT22;8142;48.242;11.644;2023-06-22T12:23:46;28.70;99.90
16076;DHT22;8142;48.242;11.644;2023-06-22T12:26:12;28.70;99.90
16076;DHT22;8142;48.242;11.644;2023-06-22T12:28:38;28.70;99.90
16076;DHT22;8142;48.242;11.644;2023-06-22T12:31:03;28.70;99.90
16076;DHT22;8142;48.242;11.644;2023-06-22T12:33:29;28.70;99.90
16076;DHT22;8142;48.242;11.644;2023-06-22T12:35:56;28.80;99.90
16076;DHT22;8142;48.242;11.644;2023-06-22T12:38:22;28.80;99.90
16076;DHT22;8142;48.242;11.644;2023-06-22T12:40:51;28.90;99.90
16076;DHT22;8142;48.242;11.644;2023-06-22T12:43:18;28.90;99.90
16076;DHT22;8142;48.242;11.644;2023-06-22T12:45:44;29.00;99.90
16076;DHT22;8142;48.242;11.644;2023-06-22T12:48:10;29.00;99.90
16076;DHT22;8142;48.242;11.644;2023-06-22T12:50:36;29.00;99.90
16076;DHT22;8142;48.242;11.644;2023-06-22T12:53:02;29.10;99.90
16076;DHT22;8142;48.242;11.644;2023-06-22T12:55:29;29.10;99.90
16076;DHT22;8142;48.242;11.644;2023-06-22T12:57:55;29.10;99.90
16076;DHT22;8142;48.242;11.644;2023-06-22T13:00:21;29.20;99.90
16076;DHT22;8142;48.242;11.644;2023-06-22T13:02:47;29.20;99.90
16076;DHT22;8142;48.242;11.644;2023-06-22T13:05:13;29.20;99.90
16076;DHT22;8142;48.242;11.644;2023-06-22T13:07:39;29.20;99.90
16076;DHT22;8142;48.242;11.644;2023-06-22T13:10:08;29.30;99.90
16076;DHT22;8142;48.242;11.644;2023-06-22T13:12:34;29.30;99.90
16076;DHT22;8142;48.242;11.644;2023-06-22T13:15:00;29.30;99.90
16076;DHT22;8142;48.242;11.644;2023-06-22T13:17:26;29.40;99.90
16076;DHT22;8142;48.242;11.644;2023-06-22T13:19:52;29.40;99.90
16076;DHT22;8142;48.242;11.644;2023-06-22T13:22:45;29.40;99.90
16076;DHT22;8142;48.242;11.644;2023-06-22T13:25:11;29.50;99.90
16076;DHT22;8142;48.242;11.644;2023-06-22T13:27:41;29.50;99.90
16076;DHT22;8142;48.242;11.644;2023-06-22T13:30:08;29.50;99.90
16076;DHT22;8142;48.242;11.644;2023-06-22T13:32:34;29.60;99.90
16076;DHT22;8142;48.242;11.644;2023-06-22T13:35:00;29.60;99.90
16076;DHT22;8142;48.242;11.644;2023-06-22T13:37:26;29.70;99.90
16076;DHT22;8142;48.242;11.644;2023-06-22T13:39:53;29.70;99.90
16076;DHT22;8142;48.242;11.644;2023-06-22T13:42:21;29.70;99.90
16076;DHT22;8142;48.242;11.644;2023-06-22T13:44:47;29.70;99.90
16076;DHT22;8142;48.242;11.644;2023-06-22T13:47:13;29.80;99.90
16076;DHT22;8142;48.242;11.644;2023-06-22T13:49:39;29.80;99.90
16076;DHT22;8142;48.242;11.644;2023-06-22T13:52:05;29.80;99.90
16076;DHT22;8142;48.242;11.644;2023-06-22T13:54:36;29.80;99.90
16076;DHT22;8142;48.242;11.644;2023-06-22T13:57:02;29.80;99.90
16076;DHT22;8142;48.242;11.644;2023-06-22T13:59:29;29.80;99.90
16076;DHT22;8142;48.242;11.644;2023-06-22T14:01:55;29.80;99.90
16076;DHT22;8142;48.242;11.644;2023-06-22T14:04:25;29.80;99.90
16076;DHT22;8142;48.242;11.644;2023-06-22T14:06:51;29.80;99.90
16076;DHT22;8142;48.242;11.644;2023-06-22T14:09:17;29.90;99.90
16076;DHT22;8142;48.242;11.644;2023-06-22T14:11:43;29.90;99.90
16076;DHT22;8142;48.242;11.644;2023-06-22T14:14:09;29.90;99.90
16076;DHT22;8142;48.242;11.644;2023-06-22T14:16:35;29.90;99.90
16076;DHT22;8142;48.242;11.644;2023-06-22T14:19:01;29.90;99.90
16076;DHT22;8142;48.242;11.644;2023-06-22T14:21:27;29.90;99.90
16076;DHT22;8142;48.242;11.644;2023-06-22T14:23:53;29.90;99.90
16076;DHT22;8142;48.242;11.644;2023-06-22T14:26:19;29.90;99.90
16076;DHT22;8142;48.242;11.644;2023-06-22T14:28:46;29.80;99.90
16076;DHT22;8142;48.242;11.644;2023-06-22T14:31:18;29.80;99.90
16076;DHT22;8142;48.242;11.644;2023-06-22T14:33:48;29.80;99.90
16076;DHT22;8142;48.242;11.644;2023-06-22T14:36:15;29.70;99.90
16076;DHT22;8142;48.242;11.644;2023-06-22T14:38:43;29.70;99.90
16076;DHT22;8142;48.242;11.644;2023-06-22T14:41:09;29.70;99.90
16076;DHT22;8142;48.242;11.644;2023-06-22T14:43:35;29.70;99.90
16076;DHT22;8142;48.242;11.644;2023-06-22T14:46:02;29.70;99.90
16076;DHT22;8142;48.242;11.644;2023-06-22T14:48:28;29.70;99.90
16076;DHT22;8142;48.242;11.644;2023-06-22T14:50:54;29.70;99.90
16076;DHT22;8142;48.242;11.644;2023-06-22T14:53:20;29.70;99.90
16076;DHT22;8142;48.242;11.644;2023-06-22T14:55:46;29.70;99.90
16076;DHT22;8142;48.242;11.644;2023-06-22T14:58:12;29.70;99.90
16076;DHT22;8142;48.242;11.644;2023-06-22T15:00:37;29.70;99.90
16076;DHT22;8142;48.242;11.644;2023-06-22T15:03:04;29.70;99.90
16076;DHT22;8142;48.242;11.644;2023-06-22T15:05:32;29.80;99.90
16076;DHT22;8142;48.242;11.644;2023-06-22T15:07:58;29.70;99.90
16076;DHT22;8142;48.242;11.644;2023-06-22T15:10:24;29.80;99.90
16076;DHT22;8142;48.242;11.644;2023-06-22T15:12:50;29.80;99.90
16076;DHT22;8142;48.242;11.644;2023-06-22T15:15:16;29.80;99.90
16076;DHT22;8142;48.242;11.644;2023-06-22T15:17:42;29.70;99.90
16076;DHT22;8142;48.242;11.644;2023-06-22T15:20:08;29.60;99.90
16076;DHT22;8142;48.242;11.644;2023-06-22T15:22:34;29.60;99.90
16076;DHT22;8142;48.242;11.644;2023-06-22T15:25:00;29.50;99.90
16076;DHT22;8142;48.242;11.644;2023-06-22T15:27:26;29.50;99.90
16076;DHT22;8142;48.242;11.644;2023-06-22T15:29:51;29.40;99.90
16076;DHT22;8142;48.242;11.644;2023-06-22T15:32:17;29.40;99.90
16076;DHT22;8142;48.242;11.644;2023-06-22T15:34:43;29.40;99.90
16076;DHT22;8142;48.242;11.644;2023-06-22T15:37:09;29.40;99.90
16076;DHT22;8142;48.242;11.644;2023-06-22T15:39:35;29.40;99.90